La Plata, Missouri
Current Conditions -  °F | °C
As of 9:12 PM on Thursday 18 Dec 2014 (Local Time) from KIRK Reporting Station
Overcast Overcast  
Wind Chill: 23°   Ceiling: 2100
Heat Index: 29°   Visibility: 7mi
Dew Point: 27°   Wind: 6mph
Humidity: 92%   Direction: 80°E
Pressure: 30.27"   Gusts: NA
Location:  40.02°N, 92.49°W
Report Text: KIRK 190312Z AUTO 08005KT 7SM SCT010 OVC021 M02/M03 A3027 RMK AO2 T10171028
Loading
Personal Weather Stations






























Interactive Weather Map New forecast layout! Learn more

10-Day Weather Forecast

Advertisements
Track Severe Weather on mobile